Time;durP1;ratioP1;P1;durP2;ratioP2;P2;SDS_P1;SDS_P2;PMS_P1;PMS_P2;Temp;Humidity;BMP_temperature;BMP_pressure;BME280_temperature;BME280_humidity;BME280_pressure;Samples;Min_cycle;Max_cycle;Signal;HPM_P1;HPM_P2
2022/01/07 00:00:52;;;;;;;9.07;6.77;;;;;;;;;;4977213;28;20409;-58
2022/01/07 00:03:19;;;;;;;13.10;7.27;;;;;;;;;;4976798;28;20405;-55
2022/01/07 00:05:45;;;;;;;8.53;6.50;;;;;;;;;;4976283;28;20393;-55
2022/01/07 00:08:11;;;;;;;13.10;7.37;;;;;;;;;;4977074;28;20433;-58
2022/01/07 00:10:37;;;;;;;8.97;6.60;;;;;;;;;;4976690;28;20504;-56
2022/01/07 00:13:03;;;;;;;10.30;7.47;;;;;;;;;;4977022;28;20490;-58
2022/01/07 00:15:29;;;;;;;9.07;6.60;;;;;;;;;;4976686;28;20416;-57
2022/01/07 00:17:56;;;;;;;9.27;6.70;;;;;;;;;;4976564;28;20414;-55
2022/01/07 00:20:22;;;;;;;8.60;6.13;;;;;;;;;;4976840;28;20460;-57
2022/01/07 00:22:48;;;;;;;10.20;6.87;;;;;;;;;;4976503;28;20815;-54
2022/01/07 00:25:14;;;;;;;10.27;7.00;;;;;;;;;;4976733;28;20439;-54
2022/01/07 00:27:41;;;;;;;11.13;7.03;;;;;;;;;;4976280;28;20504;-56
2022/01/07 00:30:08;;;;;;;12.33;6.50;;;;;;;;;;4976551;28;20424;-54
2022/01/07 00:32:34;;;;;;;9.03;5.67;;;;;;;;;;4976561;28;20418;-58
2022/01/07 00:35:00;;;;;;;8.10;6.30;;;;;;;;;;4976561;28;20416;-57
2022/01/07 00:37:26;;;;;;;10.10;5.40;;;;;;;;;;4976610;28;20512;-56
2022/01/07 00:39:53;;;;;;;10.30;6.00;;;;;;;;;;4975961;28;20473;-56
2022/01/07 00:42:19;;;;;;;9.63;5.67;;;;;;;;;;4976425;28;20405;-57
2022/01/07 00:44:45;;;;;;;8.73;5.40;;;;;;;;;;4976152;28;20421;-59
2022/01/07 00:47:11;;;;;;;11.63;5.23;;;;;;;;;;4976225;28;20406;-55
2022/01/07 00:49:37;;;;;;;8.60;5.63;;;;;;;;;;4976098;28;20512;-57
2022/01/07 00:52:04;;;;;;;7.87;5.87;;;;;;;;;;4976198;28;20409;-57
2022/01/07 00:54:30;;;;;;;8.87;5.73;;;;;;;;;;4976115;28;20413;-58
2022/01/07 00:56:56;;;;;;;6.50;5.30;;;;;;;;;;4975796;28;20401;-58
2022/01/07 00:59:22;;;;;;;7.33;5.70;;;;;;;;;;4975543;28;20469;-58
2022/01/07 01:01:48;;;;;;;6.07;5.07;;;;;;;;;;4975777;28;20890;-59
2022/01/07 01:04:14;;;;;;;8.10;5.27;;;;;;;;;;4975681;28;20402;-56
2022/01/07 01:06:41;;;;;;;9.23;5.37;;;;;;;;;;4975970;28;20767;-59
2022/01/07 01:09:11;;;;;;;11.03;4.53;;;;;;;;;;4975465;28;20429;-55
2022/01/07 01:11:37;;;;;;;8.47;5.10;;;;;;;;;;4974223;28;20538;-57
2022/01/07 01:14:03;;;;;;;8.07;5.90;;;;;;;;;;4975505;28;20488;-58
2022/01/07 01:16:30;;;;;;;10.17;4.60;;;;;;;;;;4975488;28;20432;-59
2022/01/07 01:18:56;;;;;;;11.07;5.60;;;;;;;;;;4975145;28;20503;-58
2022/01/07 01:21:22;;;;;;;8.27;5.13;;;;;;;;;;4975841;28;20448;-55
2022/01/07 01:23:50;;;;;;;13.07;4.67;;;;;;;;;;4975230;28;20404;-59
2022/01/07 01:26:18;;;;;;;10.93;5.63;;;;;;;;;;4975493;28;20421;-57
2022/01/07 01:28:44;;;;;;;5.90;4.90;;;;;;;;;;4975124;28;20453;-56
2022/01/07 01:31:13;;;;;;;10.07;5.77;;;;;;;;;;4975304;28;20406;-57
2022/01/07 01:33:39;;;;;;;6.90;5.33;;;;;;;;;;4974935;28;20464;-58
2022/01/07 01:36:08;;;;;;;7.07;5.33;;;;;;;;;;4975225;28;20418;-56
2022/01/07 01:38:34;;;;;;;5.90;4.30;;;;;;;;;;4975050;28;20505;-58
2022/01/07 01:41:00;;;;;;;6.87;5.00;;;;;;;;;;4975017;28;20402;-56
2022/01/07 01:43:26;;;;;;;5.27;4.77;;;;;;;;;;4975131;28;20398;-58
2022/01/07 01:45:52;;;;;;;8.30;5.47;;;;;;;;;;4974980;28;20402;-59
2022/01/07 01:48:20;;;;;;;6.70;4.40;;;;;;;;;;4975046;28;20461;-58
2022/01/07 01:50:47;;;;;;;6.50;4.30;;;;;;;;;;4975859;28;20410;-58
2022/01/07 01:53:14;;;;;;;5.30;4.73;;;;;;;;;;4974987;28;20402;-57
2022/01/07 01:55:40;;;;;;;7.63;4.47;;;;;;;;;;4974727;28;20406;-58
2022/01/07 01:58:06;;;;;;;9.67;4.50;;;;;;;;;;4974658;28;20487;-58
2022/01/07 02:00:32;;;;;;;5.40;4.17;;;;;;;;;;4975056;28;20461;-57
2022/01/07 02:02:58;;;;;;;8.57;4.77;;;;;;;;;;4974659;28;20814;-55
2022/01/07 02:05:26;;;;;;;7.50;4.57;;;;;;;;;;4974815;28;20414;-57
2022/01/07 02:07:53;;;;;;;6.97;4.43;;;;;;;;;;4974317;28;20409;-56
2022/01/07 02:10:19;;;;;;;9.03;4.20;;;;;;;;;;4974532;28;20456;-57
2022/01/07 02:12:45;;;;;;;5.20;4.00;;;;;;;;;;4974582;28;20418;-58
2022/01/07 02:15:12;;;;;;;6.13;4.20;;;;;;;;;;4974983;28;20863;-56
2022/01/07 02:17:42;;;;;;;5.73;4.07;;;;;;;;;;4974707;28;20440;-59
2022/01/07 02:20:09;;;;;;;7.17;4.83;;;;;;;;;;4974754;28;20457;-59
2022/01/07 02:22:35;;;;;;;3.63;3.10;;;;;;;;;;4974733;28;20496;-58
2022/01/07 02:25:01;;;;;;;9.67;4.43;;;;;;;;;;4974322;28;20414;-58
2022/01/07 02:27:28;;;;;;;7.23;4.13;;;;;;;;;;4977270;28;20818;-59
2022/01/07 02:29:54;;;;;;;4.60;3.67;;;;;;;;;;4980733;28;20425;-58
2022/01/07 02:32:21;;;;;;;5.73;4.20;;;;;;;;;;4981217;28;20413;-58
2022/01/07 02:34:47;;;;;;;5.00;4.00;;;;;;;;;;4981274;28;20432;-58
2022/01/07 02:37:13;;;;;;;6.53;4.13;;;;;;;;;;4981126;28;20410;-58
2022/01/07 02:39:39;;;;;;;6.53;3.83;;;;;;;;;;4980683;28;20531;-57
2022/01/07 02:42:06;;;;;;;5.33;3.77;;;;;;;;;;4980733;28;20489;-59
2022/01/07 02:44:32;;;;;;;6.73;4.20;;;;;;;;;;4980908;28;20413;-57
2022/01/07 02:46:58;;;;;;;14.57;4.53;;;;;;;;;;4980844;28;20500;-58
2022/01/07 02:49:24;;;;;;;10.30;4.20;;;;;;;;;;4980554;28;20500;-59
2022/01/07 02:51:50;;;;;;;11.90;4.57;;;;;;;;;;4980723;28;20413;-56
2022/01/07 02:54:21;;;;;;;4.60;4.00;;;;;;;;;;4980404;28;20487;-58
2022/01/07 02:56:47;;;;;;;8.60;4.90;;;;;;;;;;4980423;28;20389;-58
2022/01/07 02:59:13;;;;;;;5.97;3.70;;;;;;;;;;4980285;28;20461;-57
2022/01/07 03:01:40;;;;;;;5.97;4.13;;;;;;;;;;4980403;28;20861;-58
2022/01/07 03:04:07;;;;;;;6.70;3.90;;;;;;;;;;4980412;28;20536;-57
2022/01/07 03:06:33;;;;;;;7.43;4.30;;;;;;;;;;4980382;28;20413;-56
2022/01/07 03:08:59;;;;;;;7.53;4.17;;;;;;;;;;4980264;28;20452;-55
2022/01/07 03:11:27;;;;;;;11.50;4.07;;;;;;;;;;4980376;28;20402;-54
2022/01/07 03:13:53;;;;;;;9.47;4.00;;;;;;;;;;4980684;28;20409;-59
2022/01/07 03:16:19;;;;;;;9.50;4.97;;;;;;;;;;4980764;28;20769;-58
2022/01/07 03:18:45;;;;;;;5.53;4.10;;;;;;;;;;4980203;28;20886;-59
2022/01/07 03:21:11;;;;;;;5.93;4.40;;;;;;;;;;4980519;28;20420;-58
2022/01/07 03:23:40;;;;;;;5.77;4.40;;;;;;;;;;4980651;28;20410;-59
2022/01/07 03:26:06;;;;;;;7.40;3.93;;;;;;;;;;4980564;28;20409;-58
2022/01/07 03:28:33;;;;;;;5.33;4.03;;;;;;;;;;4980133;28;20512;-54
2022/01/07 03:30:59;;;;;;;8.77;4.20;;;;;;;;;;4980484;28;20825;-58
2022/01/07 03:33:25;;;;;;;8.17;3.97;;;;;;;;;;4980419;28;20827;-57
2022/01/07 03:35:51;;;;;;;4.90;3.37;;;;;;;;;;4980495;28;20761;-56
2022/01/07 03:38:18;;;;;;;4.43;3.20;;;;;;;;;;4979371;28;20471;-59
2022/01/07 03:40:44;;;;;;;7.40;3.73;;;;;;;;;;4977349;28;20390;-58
2022/01/07 03:43:10;;;;;;;6.17;4.13;;;;;;;;;;4977148;28;20459;-56
2022/01/07 03:45:36;;;;;;;5.40;3.60;;;;;;;;;;4977341;28;20433;-59
2022/01/07 03:48:02;;;;;;;7.97;3.50;;;;;;;;;;4977518;28;20520;-57
2022/01/07 03:50:29;;;;;;;6.30;3.90;;;;;;;;;;4976896;28;20890;-59
2022/01/07 03:52:55;;;;;;;8.30;3.20;;;;;;;;;;4976842;28;20401;-54
2022/01/07 03:55:23;;;;;;;4.50;2.60;;;;;;;;;;4976825;28;20409;-58
2022/01/07 03:57:49;;;;;;;5.87;3.77;;;;;;;;;;4976838;28;20398;-59
2022/01/07 04:00:17;;;;;;;3.63;2.80;;;;;;;;;;4976811;28;21201;-54
2022/01/07 04:02:44;;;;;;;3.53;2.90;;;;;;;;;;4977100;28;20410;-59
2022/01/07 04:05:10;;;;;;;3.43;2.93;;;;;;;;;;4976892;28;20408;-57
2022/01/07 04:07:36;;;;;;;3.70;2.60;;;;;;;;;;4976685;28;20437;-58
2022/01/07 04:10:04;;;;;;;5.93;3.67;;;;;;;;;;4976644;28;20434;-58
2022/01/07 04:12:30;;;;;;;5.13;3.30;;;;;;;;;;4976849;28;20408;-57
2022/01/07 04:15:08;;;;;;;5.80;3.40;;;;;;;;;;4976613;28;20440;-59
2022/01/07 04:17:35;;;;;;;4.23;2.90;;;;;;;;;;4976994;28;20420;-59
2022/01/07 04:20:01;;;;;;;5.47;3.20;;;;;;;;;;4976492;28;20460;-59
2022/01/07 04:22:28;;;;;;;9.37;3.67;;;;;;;;;;4976548;28;20895;-57
2022/01/07 04:24:54;;;;;;;6.80;3.10;;;;;;;;;;4976501;28;20413;-59
2022/01/07 04:27:20;;;;;;;4.30;2.90;;;;;;;;;;4976452;28;20402;-57
2022/01/07 04:29:46;;;;;;;6.90;3.00;;;;;;;;;;4976507;28;20429;-59
2022/01/07 04:32:12;;;;;;;3.80;2.87;;;;;;;;;;4976756;28;20413;-57
2022/01/07 04:34:38;;;;;;;4.47;2.60;;;;;;;;;;4976377;28;20442;-59
2022/01/07 04:37:05;;;;;;;3.53;2.60;;;;;;;;;;4976544;28;20405;-55
2022/01/07 04:39:31;;;;;;;3.13;2.23;;;;;;;;;;4975989;28;20843;-57
2022/01/07 04:41:59;;;;;;;6.10;3.40;;;;;;;;;;4975032;28;20433;-58
2022/01/07 04:44:25;;;;;;;6.13;2.70;;;;;;;;;;4976355;28;20410;-59
2022/01/07 04:46:51;;;;;;;3.77;3.33;;;;;;;;;;4976067;28;20413;-57
2022/01/07 04:49:17;;;;;;;4.17;3.13;;;;;;;;;;4976010;28;20938;-58
2022/01/07 04:51:43;;;;;;;3.80;2.23;;;;;;;;;;4975822;28;20437;-58
2022/01/07 04:54:09;;;;;;;3.70;3.00;;;;;;;;;;4976201;28;20779;-57
2022/01/07 04:56:35;;;;;;;4.17;2.57;;;;;;;;;;4976190;28;20452;-59
2022/01/07 04:59:01;;;;;;;4.50;2.67;;;;;;;;;;4975691;28;20961;-58
2022/01/07 05:01:27;;;;;;;5.93;3.47;;;;;;;;;;4976200;28;20433;-57
2022/01/07 05:03:53;;;;;;;3.23;2.80;;;;;;;;;;4976404;28;20493;-58
2022/01/07 05:09:03;;;;;;;3.87;2.53;;;;;;;;;;4976355;28;20444;-58
2022/01/07 05:11:30;;;;;;;4.30;2.70;;;;;;;;;;4975757;28;20907;-57
2022/01/07 05:13:56;;;;;;;3.50;2.70;;;;;;;;;;4975680;28;20895;-58
2022/01/07 05:16:23;;;;;;;5.43;3.30;;;;;;;;;;4975688;28;20402;-59
2022/01/07 05:18:50;;;;;;;4.00;2.23;;;;;;;;;;4974222;28;20511;-57
2022/01/07 05:21:16;;;;;;;4.73;2.90;;;;;;;;;;4976061;28;20406;-59
2022/01/07 05:23:42;;;;;;;4.27;3.13;;;;;;;;;;4976087;28;20492;-58
2022/01/07 05:26:08;;;;;;;4.27;2.47;;;;;;;;;;4976054;28;20405;-59
2022/01/07 05:28:34;;;;;;;2.97;2.60;;;;;;;;;;4976011;28;20422;-58
2022/01/07 05:31:03;;;;;;;2.70;2.10;;;;;;;;;;4976169;28;20452;-56
2022/01/07 05:33:29;;;;;;;3.00;2.40;;;;;;;;;;4975742;28;20907;-58
2022/01/07 05:35:55;;;;;;;3.00;2.20;;;;;;;;;;4975909;28;20413;-55
2022/01/07 05:38:21;;;;;;;3.03;2.10;;;;;;;;;;4975372;28;20907;-57
2022/01/07 05:40:47;;;;;;;5.00;2.20;;;;;;;;;;4975646;28;20382;-59
2022/01/07 05:43:13;;;;;;;2.60;2.23;;;;;;;;;;4975502;28;20393;-57
2022/01/07 05:45:40;;;;;;;3.70;2.60;;;;;;;;;;4975978;28;20404;-57
2022/01/07 05:48:06;;;;;;;3.53;2.20;;;;;;;;;;4975597;28;20505;-57
2022/01/07 05:50:33;;;;;;;6.07;2.63;;;;;;;;;;4975710;28;20406;-55
2022/01/07 05:52:59;;;;;;;3.03;2.20;;;;;;;;;;4975429;28;20409;-59
2022/01/07 05:55:25;;;;;;;7.23;2.13;;;;;;;;;;4975729;28;20485;-57
2022/01/07 05:57:51;;;;;;;3.17;2.07;;;;;;;;;;4975197;28;20409;-59
2022/01/07 06:00:18;;;;;;;2.10;1.90;;;;;;;;;;4975566;28;20471;-57
2022/01/07 06:02:44;;;;;;;2.60;1.93;;;;;;;;;;4974357;28;20449;-59
2022/01/07 06:05:11;;;;;;;3.07;2.00;;;;;;;;;;4975557;28;20528;-56
2022/01/07 06:07:37;;;;;;;2.77;2.10;;;;;;;;;;4975667;28;20405;-59
2022/01/07 06:10:04;;;;;;;3.30;2.23;;;;;;;;;;4975235;28;20465;-58
2022/01/07 06:12:30;;;;;;;3.77;2.30;;;;;;;;;;4975292;28;20405;-59
2022/01/07 06:14:57;;;;;;;3.10;2.57;;;;;;;;;;4975483;28;20410;-58
2022/01/07 06:17:23;;;;;;;6.30;2.50;;;;;;;;;;4975177;28;20405;-58
2022/01/07 06:19:49;;;;;;;6.00;2.10;;;;;;;;;;4974760;28;20480;-59
2022/01/07 06:22:15;;;;;;;3.40;2.17;;;;;;;;;;4975131;28;20484;-58
2022/01/07 06:24:41;;;;;;;3.03;2.00;;;;;;;;;;4975190;28;20409;-57
2022/01/07 06:27:07;;;;;;;2.90;2.10;;;;;;;;;;4974911;28;20409;-58
2022/01/07 06:29:34;;;;;;;5.93;2.10;;;;;;;;;;4975083;28;20433;-59
2022/01/07 06:32:00;;;;;;;3.33;2.50;;;;;;;;;;4974688;28;20437;-54
2022/01/07 06:34:26;;;;;;;4.10;2.20;;;;;;;;;;4974525;28;20414;-57
2022/01/07 06:36:52;;;;;;;3.93;2.50;;;;;;;;;;4975361;28;20405;-59
2022/01/07 06:39:19;;;;;;;2.57;2.10;;;;;;;;;;4974168;28;20493;-58
2022/01/07 06:41:49;;;;;;;2.70;1.93;;;;;;;;;;4974997;28;20409;-58
2022/01/07 06:44:15;;;;;;;5.90;2.40;;;;;;;;;;4974972;28;20923;-58
2022/01/07 06:46:41;;;;;;;2.67;2.00;;;;;;;;;;4975741;28;20409;-57
2022/01/07 06:49:08;;;;;;;2.87;2.13;;;;;;;;;;4974849;28;20440;-60
2022/01/07 06:51:34;;;;;;;3.40;2.60;;;;;;;;;;4978864;28;20409;-58
2022/01/07 06:54:00;;;;;;;4.50;2.77;;;;;;;;;;4973258;28;20492;-57
2022/01/07 06:56:27;;;;;;;5.57;2.70;;;;;;;;;;4974499;28;20852;-58
2022/01/07 06:58:54;;;;;;;3.87;2.50;;;;;;;;;;4974421;28;20548;-58
2022/01/07 07:01:20;;;;;;;6.47;2.30;;;;;;;;;;4974183;28;20402;-56
2022/01/07 07:03:46;;;;;;;4.30;3.00;;;;;;;;;;4974043;28;20405;-56
2022/01/07 07:06:12;;;;;;;5.50;2.53;;;;;;;;;;4974218;28;20501;-56
2022/01/07 07:08:38;;;;;;;4.00;2.90;;;;;;;;;;4974096;28;20516;-54
2022/01/07 07:11:05;;;;;;;4.50;2.87;;;;;;;;;;4974257;28;20409;-55
2022/01/07 07:13:31;;;;;;;3.47;2.60;;;;;;;;;;4975372;28;20402;-58
2022/01/07 07:15:57;;;;;;;4.97;3.13;;;;;;;;;;4977938;28;20401;-55
2022/01/07 07:18:23;;;;;;;8.60;3.10;;;;;;;;;;4977798;28;20428;-56
2022/01/07 07:20:49;;;;;;;4.33;3.17;;;;;;;;;;4978508;28;20398;-56
2022/01/07 07:23:15;;;;;;;5.70;3.50;;;;;;;;;;4978290;28;20428;-54
2022/01/07 07:25:41;;;;;;;4.70;3.57;;;;;;;;;;4977704;28;20891;-57
2022/01/07 07:28:07;;;;;;;2.97;2.40;;;;;;;;;;4978645;28;20876;-54
2022/01/07 07:30:39;;;;;;;3.50;3.00;;;;;;;;;;4978121;28;20441;-56
2022/01/07 07:33:31;;;;;;;5.70;3.10;;;;;;;;;;4978101;28;20440;-58
2022/01/07 07:38:43;;;;;;;5.87;3.03;;;;;;;;;;4977793;28;20484;-57
2022/01/07 07:41:12;;;;;;;3.90;3.40;;;;;;;;;;4977596;28;20764;-57
2022/01/07 07:43:39;;;;;;;5.57;2.70;;;;;;;;;;4977233;28;20401;-57
2022/01/07 07:46:05;;;;;;;4.73;3.33;;;;;;;;;;4977752;28;20808;-57
2022/01/07 07:48:32;;;;;;;6.00;3.77;;;;;;;;;;4977136;28;20449;-56
2022/01/07 07:50:58;;;;;;;4.70;3.43;;;;;;;;;;4977018;28;20413;-57
2022/01/07 07:53:25;;;;;;;4.33;3.20;;;;;;;;;;4977088;28;20472;-54
2022/01/07 07:55:53;;;;;;;4.43;3.17;;;;;;;;;;4977023;28;20410;-55
2022/01/07 07:58:20;;;;;;;6.33;3.40;;;;;;;;;;4976999;28;20448;-57
2022/01/07 08:00:47;;;;;;;6.67;3.60;;;;;;;;;;4977213;28;20414;-55
2022/01/07 08:03:13;;;;;;;5.03;3.30;;;;;;;;;;4977241;28;20453;-55
2022/01/07 08:05:39;;;;;;;4.80;3.20;;;;;;;;;;4977052;28;20910;-54
2022/01/07 08:08:05;;;;;;;15.50;3.50;;;;;;;;;;4976731;28;20950;-58
2022/01/07 08:10:32;;;;;;;4.77;3.17;;;;;;;;;;4976757;28;20410;-53
2022/01/07 08:18:20;;;;;;;7.10;3.30;;;;;;;;;;4976778;28;20771;-57
2022/01/07 08:20:46;;;;;;;6.90;3.10;;;;;;;;;;4976842;28;20412;-58
2022/01/07 08:23:13;;;;;;;3.80;2.80;;;;;;;;;;4977107;28;20409;-59
2022/01/07 08:25:39;;;;;;;7.93;3.10;;;;;;;;;;4976062;28;20402;-58
2022/01/07 08:28:06;;;;;;;4.43;3.07;;;;;;;;;;4977069;28;20429;-59
2022/01/07 08:30:37;;;;;;;4.70;2.70;;;;;;;;;;4977114;28;20410;-59
2022/01/07 08:35:49;;;;;;;5.00;3.00;;;;;;;;;;4977053;28;20448;-57
2022/01/07 08:38:15;;;;;;;5.50;3.07;;;;;;;;;;4976771;28;20441;-58
2022/01/07 08:40:41;;;;;;;5.50;3.00;;;;;;;;;;4976918;28;20394;-59
2022/01/07 08:43:08;;;;;;;5.03;3.27;;;;;;;;;;4976308;28;20434;-59
2022/01/07 08:45:34;;;;;;;3.40;2.70;;;;;;;;;;4976632;28;20405;-58
2022/01/07 08:48:00;;;;;;;5.23;2.77;;;;;;;;;;4976728;28;20882;-60
2022/01/07 08:50:26;;;;;;;4.60;3.30;;;;;;;;;;4976498;28;20406;-59
2022/01/07 08:52:53;;;;;;;4.03;2.93;;;;;;;;;;4976504;28;20500;-56
2022/01/07 08:55:19;;;;;;;3.37;2.80;;;;;;;;;;4976470;28;20411;-60
2022/01/07 08:57:46;;;;;;;9.03;3.73;;;;;;;;;;4976030;28;20442;-57
2022/01/07 09:00:12;;;;;;;4.90;3.10;;;;;;;;;;4975970;28;20452;-59
2022/01/07 09:02:38;;;;;;;8.00;3.80;;;;;;;;;;4976374;28;20413;-59
2022/01/07 09:05:04;;;;;;;3.47;2.50;;;;;;;;;;4976021;28;20907;-60
2022/01/07 09:07:31;;;;;;;4.17;2.83;;;;;;;;;;4976399;28;20406;-59
2022/01/07 09:09:57;;;;;;;3.83;2.93;;;;;;;;;;4975957;28;20429;-59
2022/01/07 09:12:23;;;;;;;9.30;2.53;;;;;;;;;;4976422;28;20417;-60
2022/01/07 09:14:49;;;;;;;2.50;2.30;;;;;;;;;;4974802;28;20476;-59
2022/01/07 09:17:15;;;;;;;4.37;2.63;;;;;;;;;;4975925;28;20838;-58
2022/01/07 09:19:41;;;;;;;3.97;2.50;;;;;;;;;;4975825;28;20453;-59
2022/01/07 09:22:07;;;;;;;4.17;2.60;;;;;;;;;;4975887;28;20409;-56
2022/01/07 09:24:33;;;;;;;2.80;2.37;;;;;;;;;;4976022;28;20958;-59
2022/01/07 09:26:59;;;;;;;7.53;3.87;;;;;;;;;;4976132;28;20456;-57
2022/01/07 09:29:27;;;;;;;4.03;3.07;;;;;;;;;;4976101;28;20437;-59
2022/01/07 09:31:53;;;;;;;4.07;2.63;;;;;;;;;;4975672;28;20416;-56
2022/01/07 09:34:20;;;;;;;4.80;2.70;;;;;;;;;;4975583;28;20413;-60
2022/01/07 09:36:46;;;;;;;5.53;3.43;;;;;;;;;;4975275;28;20413;-58
2022/01/07 09:39:12;;;;;;;7.60;2.53;;;;;;;;;;4974825;28;20500;-59
2022/01/07 09:41:38;;;;;;;2.73;2.20;;;;;;;;;;4975281;28;20441;-56
2022/01/07 09:44:08;;;;;;;3.87;2.50;;;;;;;;;;4975031;28;20460;-56
2022/01/07 09:46:34;;;;;;;6.20;2.70;;;;;;;;;;4974894;28;20406;-56
2022/01/07 09:49:00;;;;;;;2.40;2.20;;;;;;;;;;4974915;28;20460;-58
2022/01/07 09:51:27;;;;;;;2.83;1.80;;;;;;;;;;4973620;28;20417;-56
2022/01/07 09:53:54;;;;;;;4.10;2.30;;;;;;;;;;4975505;28;20497;-58
2022/01/07 09:56:20;;;;;;;5.37;2.10;;;;;;;;;;4975390;28;20861;-56
2022/01/07 09:58:46;;;;;;;5.07;2.60;;;;;;;;;;4975127;28;20469;-58
2022/01/07 10:01:17;;;;;;;4.50;2.20;;;;;;;;;;4975057;28;20770;-60
2022/01/07 10:03:44;;;;;;;3.90;2.97;;;;;;;;;;4975736;28;20867;-55
2022/01/07 10:06:16;;;;;;;2.63;1.97;;;;;;;;;;4969720;28;20422;-59
2022/01/07 10:08:43;;;;;;;4.43;2.20;;;;;;;;;;4971352;28;20525;-58
2022/01/07 10:11:14;;;;;;;3.70;2.30;;;;;;;;;;4956060;29;20470;-58
2022/01/07 10:13:41;;;;;;;3.57;2.33;;;;;;;;;;4967084;28;20406;-60
2022/01/07 10:16:20;;;;;;;9.63;2.07;;;;;;;;;;4967206;28;20428;-57
2022/01/07 10:18:47;;;;;;;3.73;1.90;;;;;;;;;;4979460;28;20468;-59
2022/01/07 10:21:14;;;;;;;4.10;1.90;;;;;;;;;;4973675;28;20426;-59
2022/01/07 10:23:40;;;;;;;3.90;2.03;;;;;;;;;;4960227;28;20406;-59
2022/01/07 10:26:14;;;;;;;6.23;1.97;;;;;;;;;;4963980;28;20414;-59
2022/01/07 10:28:40;;;;;;;2.33;1.50;;;;;;;;;;4960580;28;20458;-55
2022/01/07 10:31:08;;;;;;;2.07;1.40;;;;;;;;;;4970681;28;20457;-57
2022/01/07 10:33:41;;;;;;;1.80;1.47;;;;;;;;;;4967321;28;20822;-59
2022/01/07 10:36:07;;;;;;;2.60;1.80;;;;;;;;;;4972724;28;20436;-59
2022/01/07 10:38:34;;;;;;;3.53;1.83;;;;;;;;;;4972513;28;20473;-59
2022/01/07 10:41:01;;;;;;;4.87;2.43;;;;;;;;;;4972825;28;20423;-56
2022/01/07 10:43:30;;;;;;;3.37;2.30;;;;;;;;;;4959441;28;20417;-59
2022/01/07 10:46:00;;;;;;;4.20;1.80;;;;;;;;;;4967327;28;20418;-58
2022/01/07 10:48:47;;;;;;;3.47;1.90;;;;;;;;;;4968693;28;20607;-60
2022/01/07 10:51:13;;;;;;;6.77;2.47;;;;;;;;;;4965775;28;20915;-60
2022/01/07 10:53:39;;;;;;;2.50;1.67;;;;;;;;;;4978609;28;20517;-59
2022/01/07 10:56:05;;;;;;;2.40;1.40;;;;;;;;;;4964902;28;20426;-60
2022/01/07 10:58:48;;;;;;;8.33;1.63;;;;;;;;;;4972311;28;20437;-59
2022/01/07 11:01:20;;;;;;;2.57;1.50;;;;;;;;;;4973265;28;20429;-58
2022/01/07 11:03:50;;;;;;;2.33;1.80;;;;;;;;;;4975383;28;20837;-59
2022/01/07 11:06:16;;;;;;;6.90;1.63;;;;;;;;;;4977865;28;20961;-57
2022/01/07 11:08:42;;;;;;;4.97;1.77;;;;;;;;;;4977389;28;20944;-55
2022/01/07 11:11:08;;;;;;;3.83;1.67;;;;;;;;;;4977542;28;20441;-58
2022/01/07 11:13:35;;;;;;;3.17;2.00;;;;;;;;;;4977465;28;20445;-57
2022/01/07 11:16:05;;;;;;;3.17;1.97;;;;;;;;;;4977583;28;20409;-55
2022/01/07 11:18:32;;;;;;;3.93;2.10;;;;;;;;;;4977063;28;20433;-58
2022/01/07 11:21:01;;;;;;;3.00;1.67;;;;;;;;;;4960097;29;20776;-59
2022/01/07 11:23:30;;;;;;;2.87;1.80;;;;;;;;;;4959495;29;20411;-59
2022/01/07 11:26:01;;;;;;;5.30;2.00;;;;;;;;;;4957883;29;20460;-58
2022/01/07 11:28:27;;;;;;;2.87;1.80;;;;;;;;;;4957997;28;20426;-58
2022/01/07 11:31:03;;;;;;;2.40;1.57;;;;;;;;;;4957640;29;20457;-60
2022/01/07 11:33:29;;;;;;;2.53;1.80;;;;;;;;;;4957934;29;20397;-59
2022/01/07 11:35:56;;;;;;;2.57;1.90;;;;;;;;;;4957733;28;20414;-60
2022/01/07 11:38:40;;;;;;;2.83;1.70;;;;;;;;;;4957629;28;20450;-59
2022/01/07 11:41:09;;;;;;;2.70;1.80;;;;;;;;;;4958251;29;20426;-57
2022/01/07 11:43:45;;;;;;;2.60;1.60;;;;;;;;;;4957811;28;20880;-57
2022/01/07 11:46:22;;;;;;;2.63;1.67;;;;;;;;;;4957411;29;20746;-56
2022/01/07 11:48:48;;;;;;;5.23;1.67;;;;;;;;;;4959515;29;20422;-59
2022/01/07 11:51:15;;;;;;;3.93;1.83;;;;;;;;;;4957504;29;20418;-59
2022/01/07 11:53:41;;;;;;;3.13;1.80;;;;;;;;;;4957313;29;20411;-59
2022/01/07 11:56:09;;;;;;;2.97;1.60;;;;;;;;;;4966452;28;20769;-59
2022/01/07 11:58:38;;;;;;;6.93;1.80;;;;;;;;;;4976551;28;20461;-57
2022/01/07 12:01:05;;;;;;;2.50;1.67;;;;;;;;;;4974078;28;20422;-59
2022/01/07 12:03:39;;;;;;;5.80;1.67;;;;;;;;;;4976364;28;20818;-59
2022/01/07 12:06:23;;;;;;;2.23;1.83;;;;;;;;;;4976554;28;20925;-59
2022/01/07 12:09:03;;;;;;;4.90;1.73;;;;;;;;;;4976370;28;20926;-57
2022/01/07 12:11:36;;;;;;;3.30;1.57;;;;;;;;;;4976437;28;20926;-59
2022/01/07 12:14:15;;;;;;;2.27;1.60;;;;;;;;;;4976734;28;20413;-59
2022/01/07 12:16:42;;;;;;;4.17;1.97;;;;;;;;;;4976132;28;20423;-58
2022/01/07 12:19:08;;;;;;;4.10;2.00;;;;;;;;;;4975970;28;20453;-57
2022/01/07 12:21:37;;;;;;;2.07;1.53;;;;;;;;;;4976042;28;20464;-59
2022/01/07 12:24:06;;;;;;;3.50;1.80;;;;;;;;;;4976150;28;20401;-55
2022/01/07 12:26:32;;;;;;;2.47;1.77;;;;;;;;;;4976435;28;20772;-55
2022/01/07 12:28:58;;;;;;;3.60;2.37;;;;;;;;;;4971538;28;20475;-57
2022/01/07 12:31:24;;;;;;;2.77;1.70;;;;;;;;;;4975331;28;20930;-60
2022/01/07 12:33:50;;;;;;;3.77;1.60;;;;;;;;;;4968110;28;20425;-59
2022/01/07 12:36:45;;;;;;;4.20;2.40;;;;;;;;;;4972371;28;20410;-61
2022/01/07 12:39:11;;;;;;;4.73;2.10;;;;;;;;;;4950619;28;20566;-60
2022/01/07 12:41:37;;;;;;;7.13;2.47;;;;;;;;;;4956575;29;20474;-59
2022/01/07 12:44:09;;;;;;;5.20;3.00;;;;;;;;;;4968580;28;20417;-59
2022/01/07 12:46:36;;;;;;;4.00;2.27;;;;;;;;;;4962520;28;20410;-56
2022/01/07 12:49:02;;;;;;;3.13;2.30;;;;;;;;;;4960074;28;20437;-59
2022/01/07 12:51:31;;;;;;;4.00;3.33;;;;;;;;;;4960294;28;20472;-60
2022/01/07 12:54:01;;;;;;;5.50;2.20;;;;;;;;;;4973774;28;20425;-60
2022/01/07 12:56:31;;;;;;;6.03;2.87;;;;;;;;;;4966741;28;20773;-58
2022/01/07 12:58:57;;;;;;;3.83;2.30;;;;;;;;;;4957200;28;20512;-58
2022/01/07 13:01:23;;;;;;;5.43;2.50;;;;;;;;;;4965110;28;20413;-58
2022/01/07 13:04:02;;;;;;;4.57;3.33;;;;;;;;;;4968512;28;20968;-59
2022/01/07 13:06:29;;;;;;;4.33;2.80;;;;;;;;;;4968693;28;20468;-59
2022/01/07 13:08:55;;;;;;;3.43;2.80;;;;;;;;;;4972198;28;20452;-57
2022/01/07 13:11:21;;;;;;;4.27;2.73;;;;;;;;;;4967039;28;20495;-59
2022/01/07 13:13:47;;;;;;;4.90;2.57;;;;;;;;;;4968784;28;20949;-57
2022/01/07 13:16:21;;;;;;;4.00;2.33;;;;;;;;;;4974690;28;20421;-55
2022/01/07 13:18:47;;;;;;;2.97;2.27;;;;;;;;;;4969721;28;20462;-58
2022/01/07 13:21:17;;;;;;;5.70;2.97;;;;;;;;;;4956086;28;20746;-60
2022/01/07 13:23:50;;;;;;;3.53;2.60;;;;;;;;;;4966569;28;20414;-58
2022/01/07 13:26:17;;;;;;;4.10;2.30;;;;;;;;;;4974862;28;20405;-59
2022/01/07 13:28:45;;;;;;;3.27;2.40;;;;;;;;;;4974551;28;20432;-61
2022/01/07 13:31:12;;;;;;;3.90;2.57;;;;;;;;;;4975162;28;20917;-57
2022/01/07 13:33:39;;;;;;;4.43;2.73;;;;;;;;;;4974783;28;20519;-59
2022/01/07 13:36:06;;;;;;;5.20;2.47;;;;;;;;;;4962741;28;20425;-55
2022/01/07 13:38:33;;;;;;;4.67;2.40;;;;;;;;;;4954260;29;20573;-58
2022/01/07 13:41:04;;;;;;;2.60;2.10;;;;;;;;;;4955199;29;20414;-59
2022/01/07 13:43:31;;;;;;;6.80;2.60;;;;;;;;;;4955521;29;20407;-57
2022/01/07 13:46:11;;;;;;;3.60;2.50;;;;;;;;;;4961260;28;20910;-59
2022/01/07 13:48:57;;;;;;;4.93;3.00;;;;;;;;;;4966943;28;20773;-58
2022/01/07 13:51:27;;;;;;;3.27;2.50;;;;;;;;;;4966873;28;20420;-58
2022/01/07 13:54:12;;;;;;;3.90;2.97;;;;;;;;;;4962798;28;20419;-59
2022/01/07 13:56:40;;;;;;;6.47;2.47;;;;;;;;;;4956189;28;20406;-60
2022/01/07 13:59:08;;;;;;;4.13;2.60;;;;;;;;;;4972581;28;20460;-59
2022/01/07 14:01:34;;;;;;;7.53;2.23;;;;;;;;;;4970792;28;20432;-58
2022/01/07 14:04:00;;;;;;;4.10;2.37;;;;;;;;;;4961548;28;20419;-58
2022/01/07 14:06:26;;;;;;;4.60;2.37;;;;;;;;;;4956874;28;20473;-58
2022/01/07 14:09:12;;;;;;;6.00;2.60;;;;;;;;;;4963835;28;20809;-60
2022/01/07 14:11:38;;;;;;;4.17;2.40;;;;;;;;;;4974930;28;20406;-59
2022/01/07 14:14:17;;;;;;;3.90;2.63;;;;;;;;;;4964833;28;20439;-58
2022/01/07 14:16:44;;;;;;;4.30;2.83;;;;;;;;;;4961107;28;20901;-59
2022/01/07 14:19:10;;;;;;;4.60;2.70;;;;;;;;;;4967032;28;20454;-58
2022/01/07 14:21:36;;;;;;;4.00;2.40;;;;;;;;;;4954736;28;20426;-60
2022/01/07 14:24:02;;;;;;;6.73;3.00;;;;;;;;;;4982395;28;20421;-59
2022/01/07 14:26:31;;;;;;;4.80;2.50;;;;;;;;;;4963084;28;20773;-60
2022/01/07 14:28:59;;;;;;;4.40;2.40;;;;;;;;;;4968844;28;20453;-60
2022/01/07 14:31:26;;;;;;;6.53;2.40;;;;;;;;;;4958830;28;20977;-60
2022/01/07 14:33:52;;;;;;;4.73;2.50;;;;;;;;;;4967988;28;20422;-58
2022/01/07 14:36:18;;;;;;;3.63;2.40;;;;;;;;;;4955961;28;20508;-60
2022/01/07 14:38:46;;;;;;;4.57;2.57;;;;;;;;;;4954239;28;20970;-60
2022/01/07 14:41:12;;;;;;;3.27;2.20;;;;;;;;;;4974044;28;20457;-60
2022/01/07 14:43:38;;;;;;;5.53;3.57;;;;;;;;;;4974105;28;20497;-60
2022/01/07 14:46:08;;;;;;;5.73;2.30;;;;;;;;;;4972761;28;20446;-61
2022/01/07 14:48:35;;;;;;;5.57;2.60;;;;;;;;;;4967513;28;20437;-60
2022/01/07 14:51:02;;;;;;;6.40;2.83;;;;;;;;;;4962248;28;20907;-60
2022/01/07 14:53:28;;;;;;;4.27;2.57;;;;;;;;;;4965181;28;20451;-60
2022/01/07 14:55:54;;;;;;;2.97;2.10;;;;;;;;;;4965019;28;20425;-59
2022/01/07 14:58:20;;;;;;;3.50;2.33;;;;;;;;;;4975361;28;20441;-60